Time;durP1;ratioP1;P1;durP2;ratioP2;P2;SDS_P1;SDS_P2;PMS_P1;PMS_P2;Temp;Humidity;BMP_temperature;BMP_pressure;BME280_temperature;BME280_humidity;BME280_pressure;Samples;Min_cycle;Max_cycle;Signal;HPM_P1;HPM_P2
2022/06/25 00:00:33;;;;;;;23.87;22.47;;;;;;;;;;5095819;28;20812;-74
2022/06/25 00:03:00;;;;;;;23.10;21.80;;;;;;;;;;5096115;28;20764;-74
2022/06/25 00:05:29;;;;;;;24.63;22.90;;;;;;;;;;5095986;28;20438;-74
2022/06/25 00:07:56;;;;;;;23.80;22.50;;;;;;;;;;5095865;28;20440;-73
2022/06/25 00:10:23;;;;;;;24.70;23.40;;;;;;;;;;5095609;28;20416;-73
2022/06/25 00:12:51;;;;;;;23.73;22.53;;;;;;;;;;5095403;28;20472;-74
2022/06/25 00:15:18;;;;;;;24.97;23.53;;;;;;;;;;5095450;28;20485;-74
2022/06/25 00:17:46;;;;;;;23.40;22.10;;;;;;;;;;5095787;28;20442;-74
2022/06/25 00:20:13;;;;;;;24.73;23.33;;;;;;;;;;5095492;28;20453;-74
2022/06/25 00:22:42;;;;;;;23.73;22.43;;;;;;;;;;5095568;28;20472;-74
2022/06/25 00:25:10;;;;;;;25.70;24.30;;;;;;;;;;5095713;28;20498;-73
2022/06/25 00:27:37;;;;;;;25.17;23.77;;;;;;;;;;5095294;28;20434;-74
2022/06/25 00:30:05;;;;;;;24.83;23.43;;;;;;;;;;5095530;28;20433;-74
2022/06/25 00:32:32;;;;;;;25.50;24.00;;;;;;;;;;5095452;28;20408;-74
2022/06/25 00:35:00;;;;;;;25.87;24.37;;;;;;;;;;5095311;28;20505;-74
2022/06/25 00:37:27;;;;;;;25.70;24.30;;;;;;;;;;5095238;28;20412;-74
2022/06/25 00:39:56;;;;;;;27.27;25.63;;;;;;;;;;5095422;28;20438;-73
2022/06/25 00:42:23;;;;;;;27.23;25.73;;;;;;;;;;5095082;28;20440;-74
2022/06/25 00:44:52;;;;;;;26.90;25.40;;;;;;;;;;5094774;28;20470;-74
2022/06/25 00:47:19;;;;;;;26.30;24.90;;;;;;;;;;5095172;28;20442;-74
2022/06/25 00:49:46;;;;;;;26.50;24.97;;;;;;;;;;5094876;28;20942;-74
2022/06/25 00:52:14;;;;;;;25.87;24.37;;;;;;;;;;5094749;28;20445;-73
2022/06/25 00:54:46;;;;;;;26.33;24.93;;;;;;;;;;5094544;28;20415;-74
2022/06/25 00:57:19;;;;;;;28.33;26.47;;;;;;;;;;5095042;28;20439;-74
2022/06/25 00:59:49;;;;;;;26.70;25.20;;;;;;;;;;5095040;28;20416;-74
2022/06/25 01:02:17;;;;;;;25.00;23.60;;;;;;;;;;5094937;28;20408;-74
2022/06/25 01:04:45;;;;;;;26.43;24.90;;;;;;;;;;5094861;28;20412;-74
2022/06/25 01:07:12;;;;;;;26.93;25.33;;;;;;;;;;5094307;28;20824;-74
2022/06/25 01:09:40;;;;;;;27.40;25.67;;;;;;;;;;5094426;28;20455;-74
2022/06/25 01:12:07;;;;;;;25.60;24.30;;;;;;;;;;5094659;28;20456;-74
2022/06/25 01:14:36;;;;;;;26.27;24.87;;;;;;;;;;5094525;28;20417;-74
2022/06/25 01:17:06;;;;;;;27.00;25.30;;;;;;;;;;5094749;28;20427;-74
2022/06/25 01:19:33;;;;;;;26.43;25.03;;;;;;;;;;5094660;28;20416;-74
2022/06/25 01:22:03;;;;;;;25.37;24.00;;;;;;;;;;5094571;28;20528;-74
2022/06/25 01:24:31;;;;;;;26.83;25.33;;;;;;;;;;5094156;28;20498;-74
2022/06/25 01:26:58;;;;;;;26.40;24.90;;;;;;;;;;5094483;28;20437;-74
2022/06/25 01:29:26;;;;;;;27.27;25.50;;;;;;;;;;5094387;28;20434;-74
2022/06/25 01:31:53;;;;;;;27.20;25.70;;;;;;;;;;5094359;28;20477;-74
2022/06/25 01:34:20;;;;;;;27.63;26.07;;;;;;;;;;5093950;28;20412;-74
2022/06/25 01:36:48;;;;;;;25.83;24.30;;;;;;;;;;5093795;28;20511;-74
2022/06/25 01:39:17;;;;;;;26.20;24.70;;;;;;;;;;5094235;28;20408;-74
2022/06/25 01:41:44;;;;;;;24.93;23.50;;;;;;;;;;5093863;28;20833;-74
2022/06/25 01:44:11;;;;;;;27.50;25.90;;;;;;;;;;5093529;28;20479;-74
2022/06/25 01:46:39;;;;;;;27.27;25.77;;;;;;;;;;5094119;28;20440;-74
2022/06/25 01:49:06;;;;;;;27.23;25.73;;;;;;;;;;5093766;28;20917;-74
2022/06/25 01:51:33;;;;;;;25.80;24.20;;;;;;;;;;5093780;28;20404;-74
2022/06/25 01:54:00;;;;;;;27.10;25.50;;;;;;;;;;5093935;28;20437;-74
2022/06/25 01:56:29;;;;;;;25.40;24.00;;;;;;;;;;5093766;28;20460;-74
2022/06/25 01:58:56;;;;;;;27.33;25.83;;;;;;;;;;5093788;28;20477;-74
2022/06/25 02:01:24;;;;;;;27.73;26.10;;;;;;;;;;5093472;28;20427;-74
2022/06/25 02:03:51;;;;;;;26.50;24.83;;;;;;;;;;5093745;28;20437;-74
2022/06/25 02:06:19;;;;;;;28.47;26.70;;;;;;;;;;5092872;28;20494;-74
2022/06/25 02:08:46;;;;;;;27.67;26.13;;;;;;;;;;5093353;28;20449;-74
2022/06/25 02:11:13;;;;;;;27.43;25.73;;;;;;;;;;5093558;28;20469;-74
2022/06/25 02:13:42;;;;;;;28.33;26.67;;;;;;;;;;5093281;28;20454;-74
2022/06/25 02:16:09;;;;;;;27.57;25.87;;;;;;;;;;5093506;28;20485;-74
2022/06/25 02:18:37;;;;;;;27.67;25.93;;;;;;;;;;5093514;28;20415;-74
2022/06/25 02:21:04;;;;;;;27.17;25.63;;;;;;;;;;5093499;28;20450;-74
2022/06/25 02:23:32;;;;;;;28.13;26.53;;;;;;;;;;5093105;28;20412;-74
2022/06/25 02:26:00;;;;;;;29.10;27.47;;;;;;;;;;5093023;28;20850;-75
2022/06/25 02:28:27;;;;;;;27.67;26.00;;;;;;;;;;5093399;28;20415;-74
2022/06/25 02:30:56;;;;;;;29.10;27.30;;;;;;;;;;5093248;28;20449;-74
2022/06/25 02:33:23;;;;;;;29.10;27.40;;;;;;;;;;5093223;28;20457;-74
2022/06/25 02:35:50;;;;;;;29.10;27.30;;;;;;;;;;5092830;28;20449;-74
2022/06/25 02:38:18;;;;;;;28.10;26.40;;;;;;;;;;5092828;28;20408;-74
2022/06/25 02:40:46;;;;;;;29.80;28.10;;;;;;;;;;5092885;28;20845;-74
2022/06/25 02:43:13;;;;;;;28.47;26.77;;;;;;;;;;5092851;28;20448;-75
2022/06/25 02:45:41;;;;;;;27.67;26.07;;;;;;;;;;5093185;28;20408;-74
2022/06/25 02:48:10;;;;;;;27.23;25.73;;;;;;;;;;5092739;28;20412;-74
2022/06/25 02:50:38;;;;;;;28.77;27.07;;;;;;;;;;5093072;28;20409;-74
2022/06/25 02:53:05;;;;;;;29.07;27.37;;;;;;;;;;5092629;28;20881;-74
2022/06/25 03:01:02;;;;;;;28.60;27.00;;;;;;;;;;5092623;28;20433;-74
2022/06/25 03:03:30;;;;;;;28.70;26.90;;;;;;;;;;5092532;28;20494;-74
2022/06/25 03:05:58;;;;;;;30.13;28.23;;;;;;;;;;5092839;28;20419;-74
2022/06/25 03:08:25;;;;;;;28.40;26.80;;;;;;;;;;5092442;28;20416;-74
2022/06/25 03:10:53;;;;;;;28.60;26.97;;;;;;;;;;5092517;28;20477;-74
2022/06/25 03:13:21;;;;;;;30.60;28.70;;;;;;;;;;5092804;28;20979;-74
2022/06/25 03:15:48;;;;;;;29.20;27.40;;;;;;;;;;5092623;28;20492;-74
2022/06/25 03:18:15;;;;;;;29.63;27.80;;;;;;;;;;5095594;28;20911;-76
2022/06/25 03:20:44;;;;;;;29.17;27.27;;;;;;;;;;5096884;28;20847;-75
2022/06/25 03:23:11;;;;;;;29.10;27.40;;;;;;;;;;5096482;28;20433;-76
2022/06/25 03:25:39;;;;;;;27.90;26.30;;;;;;;;;;5096482;28;20977;-74
2022/06/25 03:28:06;;;;;;;28.67;26.77;;;;;;;;;;5096803;28;20410;-74
2022/06/25 03:30:33;;;;;;;29.17;27.17;;;;;;;;;;5096736;28;20423;-74
2022/06/25 03:33:01;;;;;;;27.73;26.17;;;;;;;;;;5096669;28;20499;-76
2022/06/25 03:35:28;;;;;;;27.90;26.20;;;;;;;;;;5096530;28;20404;-76
2022/06/25 03:37:57;;;;;;;28.60;26.97;;;;;;;;;;5096360;28;20433;-76
2022/06/25 03:40:24;;;;;;;27.00;25.40;;;;;;;;;;5096646;28;20505;-76
2022/06/25 03:42:51;;;;;;;26.53;25.03;;;;;;;;;;5096254;28;20821;-75
2022/06/25 03:45:19;;;;;;;27.03;25.50;;;;;;;;;;5096351;28;20445;-76
2022/06/25 03:47:50;;;;;;;26.80;25.40;;;;;;;;;;5096120;28;20419;-76
2022/06/25 03:50:17;;;;;;;28.37;26.57;;;;;;;;;;5096055;28;20889;-76
2022/06/25 03:52:45;;;;;;;27.27;25.67;;;;;;;;;;5096120;28;20412;-76
2022/06/25 03:55:14;;;;;;;27.83;26.23;;;;;;;;;;5096464;28;20428;-76
2022/06/25 03:57:42;;;;;;;27.17;25.67;;;;;;;;;;5095833;28;20447;-74
2022/06/25 04:00:10;;;;;;;25.90;24.40;;;;;;;;;;5096116;28;20437;-75
2022/06/25 04:02:37;;;;;;;27.73;25.90;;;;;;;;;;5096049;28;20436;-75
2022/06/25 04:05:05;;;;;;;27.33;25.77;;;;;;;;;;5095764;28;20438;-75
2022/06/25 04:07:33;;;;;;;26.87;25.37;;;;;;;;;;5095792;28;20424;-75
2022/06/25 04:10:00;;;;;;;26.70;25.10;;;;;;;;;;5096054;28;20408;-75
2022/06/25 04:12:29;;;;;;;26.10;24.60;;;;;;;;;;5095611;28;20432;-75
2022/06/25 04:14:56;;;;;;;26.93;25.43;;;;;;;;;;5095878;28;20411;-75
2022/06/25 04:17:23;;;;;;;25.90;24.40;;;;;;;;;;5095795;28;20456;-75
2022/06/25 04:19:51;;;;;;;25.50;24.13;;;;;;;;;;5095413;28;20831;-75
2022/06/25 04:22:18;;;;;;;25.20;23.80;;;;;;;;;;5095333;28;20791;-75
2022/06/25 04:24:45;;;;;;;25.93;24.17;;;;;;;;;;5095346;28;20419;-75
2022/06/25 04:29:03;;;;;;;24.57;23.27;;;;;;;;;;5095406;28;20441;-75
2022/06/25 04:30:00;;;;;;;25.87;24.47;;;;;;;;;;5094317;28;20400;-75
2022/06/25 04:32:29;;;;;;;25.70;24.30;;;;;;;;;;5095240;28;20438;-75
2022/06/25 04:34:57;;;;;;;24.83;23.43;;;;;;;;;;5095434;28;20411;-75
2022/06/25 04:37:24;;;;;;;26.00;24.33;;;;;;;;;;5095280;28;20455;-75
2022/06/25 04:39:51;;;;;;;24.47;23.00;;;;;;;;;;5095065;28;20489;-75
2022/06/25 04:42:18;;;;;;;25.57;24.07;;;;;;;;;;5094908;28;20440;-74
2022/06/25 04:44:46;;;;;;;26.63;25.00;;;;;;;;;;5094879;28;20483;-75
2022/06/25 04:47:14;;;;;;;25.60;24.20;;;;;;;;;;5095220;28;20826;-75
2022/06/25 04:49:42;;;;;;;26.90;25.10;;;;;;;;;;5094900;28;20411;-75
2022/06/25 04:52:09;;;;;;;27.80;26.27;;;;;;;;;;5094770;28;20923;-75
2022/06/25 04:54:36;;;;;;;27.40;26.00;;;;;;;;;;5094832;28;20976;-75
2022/06/25 04:57:04;;;;;;;26.17;24.77;;;;;;;;;;5095025;28;20459;-75
2022/06/25 04:59:31;;;;;;;26.73;25.23;;;;;;;;;;5094984;28;20416;-75
2022/06/25 05:01:59;;;;;;;24.87;23.57;;;;;;;;;;5094651;28;20420;-75
2022/06/25 05:04:27;;;;;;;25.40;23.90;;;;;;;;;;5094559;28;20476;-75
2022/06/25 05:06:55;;;;;;;26.77;25.17;;;;;;;;;;5094355;28;20491;-75
2022/06/25 05:09:22;;;;;;;25.83;24.23;;;;;;;;;;5094838;28;20438;-75
2022/06/25 05:11:50;;;;;;;25.20;23.80;;;;;;;;;;5094415;28;21002;-75
2022/06/25 05:14:17;;;;;;;25.30;24.00;;;;;;;;;;5094423;28;20412;-75
2022/06/25 05:16:45;;;;;;;23.60;22.40;;;;;;;;;;5094559;28;20532;-75
2022/06/25 05:19:13;;;;;;;24.13;22.83;;;;;;;;;;5094640;28;20507;-75
2022/06/25 05:21:41;;;;;;;24.20;22.60;;;;;;;;;;5093040;28;20448;-75
2022/06/25 05:24:09;;;;;;;23.80;22.50;;;;;;;;;;5094300;28;20491;-75
2022/06/25 05:26:36;;;;;;;23.70;22.50;;;;;;;;;;5094564;28;20416;-75
2022/06/25 05:29:03;;;;;;;24.70;23.30;;;;;;;;;;5094444;28;20410;-74
2022/06/25 05:31:31;;;;;;;23.53;22.33;;;;;;;;;;5093918;28;20404;-74
2022/06/25 05:33:58;;;;;;;22.77;21.67;;;;;;;;;;5084161;28;20436;-75
2022/06/25 05:36:25;;;;;;;23.70;22.30;;;;;;;;;;5076389;28;20448;-76
2022/06/25 05:38:54;;;;;;;22.70;21.40;;;;;;;;;;5073771;28;20435;-75
2022/06/25 05:41:22;;;;;;;22.63;21.03;;;;;;;;;;5073646;28;20500;-75
2022/06/25 05:43:49;;;;;;;22.27;21.10;;;;;;;;;;5073478;28;20445;-75
2022/06/25 05:46:16;;;;;;;21.97;20.87;;;;;;;;;;5073512;28;20496;-77
2022/06/25 05:48:43;;;;;;;21.20;20.13;;;;;;;;;;5073419;28;20429;-77
2022/06/25 05:51:11;;;;;;;21.87;20.57;;;;;;;;;;5073389;28;20948;-76
2022/06/25 05:53:38;;;;;;;21.17;20.07;;;;;;;;;;5073638;28;20406;-76
2022/06/25 05:56:07;;;;;;;22.10;20.80;;;;;;;;;;5073255;28;20442;-76
2022/06/25 05:58:34;;;;;;;21.37;20.27;;;;;;;;;;5073676;28;20405;-79
2022/06/25 06:01:02;;;;;;;21.13;20.03;;;;;;;;;;5073626;28;20407;-75
2022/06/25 06:03:29;;;;;;;22.23;21.03;;;;;;;;;;5073389;28;20438;-75
2022/06/25 06:05:58;;;;;;;21.00;19.90;;;;;;;;;;5073492;28;20512;-76
2022/06/25 06:08:25;;;;;;;20.77;19.63;;;;;;;;;;5073199;28;20431;-76
2022/06/25 06:10:52;;;;;;;20.77;19.77;;;;;;;;;;5073034;28;20448;-75
2022/06/25 06:13:21;;;;;;;20.80;19.70;;;;;;;;;;5073280;28;20424;-79
2022/06/25 06:15:48;;;;;;;20.43;19.37;;;;;;;;;;5072939;28;20431;-77
2022/06/25 06:18:16;;;;;;;21.40;20.30;;;;;;;;;;5072881;28;20452;-76
2022/06/25 06:20:43;;;;;;;20.43;19.43;;;;;;;;;;5073206;28;20446;-78
2022/06/25 06:23:10;;;;;;;21.10;20.00;;;;;;;;;;5073180;28;20437;-77
2022/06/25 06:25:38;;;;;;;21.17;20.07;;;;;;;;;;5073199;28;20409;-77
2022/06/25 06:28:05;;;;;;;21.47;20.27;;;;;;;;;;5073049;28;20792;-78
2022/06/25 06:30:34;;;;;;;22.33;20.97;;;;;;;;;;5073081;28;20446;-79
2022/06/25 06:33:02;;;;;;;22.13;20.30;;;;;;;;;;5072563;28;20413;-78
2022/06/25 06:35:29;;;;;;;20.73;19.70;;;;;;;;;;5072602;28;20438;-78
2022/06/25 06:37:56;;;;;;;21.37;20.27;;;;;;;;;;5072382;28;21026;-77
2022/06/25 06:40:24;;;;;;;21.23;20.13;;;;;;;;;;5072702;28;20420;-77
2022/06/25 06:42:51;;;;;;;22.33;21.00;;;;;;;;;;5072426;28;20461;-75
2022/06/25 06:45:18;;;;;;;20.13;19.10;;;;;;;;;;5072957;28;20445;-75
2022/06/25 06:47:47;;;;;;;20.63;19.53;;;;;;;;;;5072977;28;20421;-82
2022/06/25 06:50:14;;;;;;;20.87;19.77;;;;;;;;;;5072693;28;20442;-73
2022/06/25 06:52:42;;;;;;;21.77;20.50;;;;;;;;;;5072215;28;20440;-74
2022/06/25 06:55:09;;;;;;;21.20;20.20;;;;;;;;;;5072491;28;20408;-73
2022/06/25 06:57:37;;;;;;;21.20;20.10;;;;;;;;;;5073484;28;20852;-72
2022/06/25 07:00:04;;;;;;;21.33;20.27;;;;;;;;;;5081036;28;20454;-73
2022/06/25 07:02:32;;;;;;;21.00;19.90;;;;;;;;;;5072185;28;20409;-73
2022/06/25 07:05:01;;;;;;;21.90;20.80;;;;;;;;;;5072320;28;20924;-75
2022/06/25 07:07:28;;;;;;;22.30;21.10;;;;;;;;;;5072110;28;20526;-76
2022/06/25 07:09:56;;;;;;;22.60;21.40;;;;;;;;;;5072283;28;20436;-77
2022/06/25 07:12:23;;;;;;;22.00;20.77;;;;;;;;;;5072484;28;20440;-73
2022/06/25 07:14:51;;;;;;;22.03;20.93;;;;;;;;;;5092015;28;20420;-79
2022/06/25 07:17:18;;;;;;;22.30;21.10;;;;;;;;;;5092744;28;20484;-75
2022/06/25 07:19:45;;;;;;;21.13;20.03;;;;;;;;;;5092482;28;20856;-74
2022/06/25 07:22:14;;;;;;;22.00;20.50;;;;;;;;;;5092792;28;20440;-75
2022/06/25 07:24:41;;;;;;;22.13;20.87;;;;;;;;;;5092446;28;20901;-75
2022/06/25 07:27:08;;;;;;;22.10;20.90;;;;;;;;;;5092775;28;20412;-75
2022/06/25 07:29:36;;;;;;;21.87;20.63;;;;;;;;;;5092726;28;20408;-75
2022/06/25 07:32:04;;;;;;;22.40;21.20;;;;;;;;;;5092285;28;20919;-75
2022/06/25 07:34:32;;;;;;;22.10;20.60;;;;;;;;;;5092751;28;20407;-75
2022/06/25 07:36:59;;;;;;;22.37;20.97;;;;;;;;;;5092317;28;20602;-75
2022/06/25 07:39:28;;;;;;;22.57;21.37;;;;;;;;;;5092281;28;20415;-75
2022/06/25 07:41:55;;;;;;;22.50;21.40;;;;;;;;;;5092418;28;20407;-74
2022/06/25 07:44:23;;;;;;;22.23;21.00;;;;;;;;;;5092146;28;20477;-75
2022/06/25 07:46:50;;;;;;;22.87;21.77;;;;;;;;;;5092414;28;20407;-75
2022/06/25 07:49:18;;;;;;;22.20;21.10;;;;;;;;;;5092426;28;20491;-74
2022/06/25 07:51:56;;;;;;;22.43;21.20;;;;;;;;;;5092131;28;20408;-74
2022/06/25 07:54:24;;;;;;;22.70;21.30;;;;;;;;;;5092377;28;20408;-74
2022/06/25 07:56:53;;;;;;;22.03;20.73;;;;;;;;;;5091918;28;20423;-75
2022/06/25 07:59:20;;;;;;;23.20;21.70;;;;;;;;;;5092306;28;20410;-75
2022/06/25 08:01:47;;;;;;;23.20;21.90;;;;;;;;;;5091979;28;20490;-75
2022/06/25 08:04:15;;;;;;;21.37;20.17;;;;;;;;;;5093307;28;20747;-75
2022/06/25 08:06:43;;;;;;;22.20;20.70;;;;;;;;;;5095831;28;20407;-75
2022/06/25 08:09:10;;;;;;;22.40;20.83;;;;;;;;;;5096006;28;20444;-74
2022/06/25 08:11:38;;;;;;;21.67;20.53;;;;;;;;;;5095596;28;20443;-75
2022/06/25 08:14:07;;;;;;;21.57;20.27;;;;;;;;;;5095585;28;20423;-75
2022/06/25 08:16:35;;;;;;;21.23;20.03;;;;;;;;;;5095943;28;20416;-74
2022/06/25 08:19:02;;;;;;;21.90;20.70;;;;;;;;;;5095839;28;20581;-75
2022/06/25 08:21:30;;;;;;;23.03;21.63;;;;;;;;;;5095502;28;20416;-75
2022/06/25 08:23:57;;;;;;;22.17;20.93;;;;;;;;;;5095430;28;20877;-75
2022/06/25 08:26:24;;;;;;;23.03;21.67;;;;;;;;;;5095772;28;20444;-75
2022/06/25 08:28:51;;;;;;;22.67;21.47;;;;;;;;;;5095686;28;20437;-75
2022/06/25 08:31:20;;;;;;;22.10;20.77;;;;;;;;;;5095595;28;20439;-75
2022/06/25 08:33:48;;;;;;;22.70;21.13;;;;;;;;;;5095479;28;20412;-74
2022/06/25 08:36:15;;;;;;;22.53;21.23;;;;;;;;;;5095067;28;20440;-75
2022/06/25 08:38:42;;;;;;;21.53;20.33;;;;;;;;;;5094977;28;20513;-75
2022/06/25 08:41:10;;;;;;;21.70;20.40;;;;;;;;;;5095089;28;20445;-75
2022/06/25 08:43:37;;;;;;;21.53;20.33;;;;;;;;;;5095122;28;20492;-75
2022/06/25 08:46:05;;;;;;;22.77;21.47;;;;;;;;;;5095344;28;20444;-74
2022/06/25 08:48:36;;;;;;;21.37;20.07;;;;;;;;;;5095240;28;20442;-75
2022/06/25 08:51:05;;;;;;;21.80;20.60;;;;;;;;;;5095197;28;20442;-74
2022/06/25 08:53:34;;;;;;;22.57;21.37;;;;;;;;;;5093704;28;20900;-75
2022/06/25 08:56:01;;;;;;;22.93;21.70;;;;;;;;;;5095181;28;20438;-74
2022/06/25 08:58:29;;;;;;;21.73;20.33;;;;;;;;;;5094666;28;20551;-75
2022/06/25 09:00:56;;;;;;;22.03;20.63;;;;;;;;;;5095158;28;20418;-75
2022/06/25 09:03:25;;;;;;;22.37;21.17;;;;;;;;;;5094905;28;20437;-75
2022/06/25 09:05:53;;;;;;;22.40;21.20;;;;;;;;;;5094495;28;20930;-75
2022/06/25 09:08:21;;;;;;;23.20;21.90;;;;;;;;;;5094509;28;20408;-75
2022/06/25 09:10:53;;;;;;;22.90;21.60;;;;;;;;;;5094828;28;20518;-75
2022/06/25 09:13:23;;;;;;;23.40;22.00;;;;;;;;;;5094776;28;20444;-76
2022/06/25 09:15:51;;;;;;;24.37;23.10;;;;;;;;;;5094188;28;20881;-75
2022/06/25 09:18:19;;;;;;;24.03;22.37;;;;;;;;;;5094436;28;20984;-75
2022/06/25 09:20:58;;;;;;;24.67;23.17;;;;;;;;;;5094305;28;20451;-75
2022/06/25 09:23:26;;;;;;;23.30;22.10;;;;;;;;;;5094280;28;20437;-74
2022/06/25 09:26:01;;;;;;;24.10;22.90;;;;;;;;;;5094662;28;20437;-74
2022/06/25 09:28:32;;;;;;;24.53;23.20;;;;;;;;;;5094065;28;20906;-74
2022/06/25 09:31:02;;;;;;;24.97;23.67;;;;;;;;;;5094262;28;20446;-74
2022/06/25 09:33:29;;;;;;;24.47;23.13;;;;;;;;;;5094208;28;20587;-75
2022/06/25 09:35:58;;;;;;;23.30;22.17;;;;;;;;;;5093997;28;20779;-75
2022/06/25 09:38:26;;;;;;;24.60;23.30;;;;;;;;;;5094097;28;20478;-76
2022/06/25 09:40:54;;;;;;;24.27;22.97;;;;;;;;;;5093839;28;20429;-75
2022/06/25 09:43:22;;;;;;;24.43;23.03;;;;;;;;;;5093799;28;20456;-75
2022/06/25 09:45:51;;;;;;;22.37;21.17;;;;;;;;;;5093745;28;20884;-75
2022/06/25 09:48:19;;;;;;;21.90;20.60;;;;;;;;;;5094047;28;20423;-75
2022/06/25 09:50:47;;;;;;;21.67;20.37;;;;;;;;;;5093746;28;20468;-75
2022/06/25 09:53:26;;;;;;;21.57;20.47;;;;;;;;;;5094053;28;20416;-76
2022/06/25 09:55:53;;;;;;;23.50;22.10;;;;;;;;;;5093992;28;20838;-75
2022/06/25 09:58:20;;;;;;;23.13;21.80;;;;;;;;;;5093846;28;20448;-74
2022/06/25 10:00:48;;;;;;;22.63;21.37;;;;;;;;;;5093615;28;20442;-75
2022/06/25 10:03:15;;;;;;;22.97;21.47;;;;;;;;;;5093462;28;20418;-75
2022/06/25 10:05:43;;;;;;;23.00;21.80;;;;;;;;;;5093542;28;20920;-76
2022/06/25 10:08:12;;;;;;;22.80;21.60;;;;;;;;;;5093461;28;20473;-75
2022/06/25 10:10:42;;;;;;;21.57;20.23;;;;;;;;;;5093365;28;20443;-75
2022/06/25 10:13:09;;;;;;;22.40;21.10;;;;;;;;;;5093320;28;20981;-75
2022/06/25 10:15:37;;;;;;;22.90;21.57;;;;;;;;;;5093617;28;20433;-75
2022/06/25 10:18:06;;;;;;;21.87;20.57;;;;;;;;;;5093225;28;21045;-75
2022/06/25 10:20:34;;;;;;;22.80;21.50;;;;;;;;;;5093498;28;20491;-75
2022/06/25 10:23:02;;;;;;;23.20;21.80;;;;;;;;;;5093147;28;20487;-75
2022/06/25 10:25:30;;;;;;;21.53;20.33;;;;;;;;;;5093412;28;20492;-75
2022/06/25 10:28:06;;;;;;;23.97;22.60;;;;;;;;;;5092716;28;20442;-75
2022/06/25 10:30:37;;;;;;;21.77;20.57;;;;;;;;;;5093404;28;20448;-75
2022/06/25 10:33:05;;;;;;;23.77;22.20;;;;;;;;;;5092985;28;20419;-75
2022/06/25 10:35:33;;;;;;;22.70;21.40;;;;;;;;;;5092967;28;20433;-75
2022/06/25 10:38:02;;;;;;;22.20;20.90;;;;;;;;;;5092947;28;20544;-75
2022/06/25 10:40:29;;;;;;;21.77;20.47;;;;;;;;;;5092934;28;21231;-75
2022/06/25 10:43:02;;;;;;;24.23;22.63;;;;;;;;;;5092608;28;20934;-75
2022/06/25 10:45:56;;;;;;;23.23;21.93;;;;;;;;;;5092846;28;20453;-75
2022/06/25 10:48:28;;;;;;;20.33;19.23;;;;;;;;;;5092909;28;20972;-75
2022/06/25 10:50:55;;;;;;;22.10;20.80;;;;;;;;;;5093139;28;20464;-75
2022/06/25 10:53:27;;;;;;;22.30;21.10;;;;;;;;;;5092722;28;20408;-75
2022/06/25 10:56:02;;;;;;;22.37;21.17;;;;;;;;;;5092708;28;20886;-72
2022/06/25 10:58:30;;;;;;;22.40;21.17;;;;;;;;;;5092657;28;20464;-72
2022/06/25 11:00:58;;;;;;;22.23;21.00;;;;;;;;;;5092678;28;20416;-73
2022/06/25 11:03:45;;;;;;;21.80;20.60;;;;;;;;;;5092574;28;20428;-72
2022/06/25 11:06:20;;;;;;;21.63;20.43;;;;;;;;;;5092706;28;20842;-72
2022/06/25 11:08:47;;;;;;;23.00;21.70;;;;;;;;;;5092483;28;20413;-73
2022/06/25 11:11:24;;;;;;;23.17;21.67;;;;;;;;;;5092886;28;20486;-72
2022/06/25 11:13:51;;;;;;;22.30;21.10;;;;;;;;;;5092623;28;20885;-73
2022/06/25 11:16:19;;;;;;;22.30;21.00;;;;;;;;;;5087856;28;20431;-72
2022/06/25 11:18:48;;;;;;;22.50;21.00;;;;;;;;;;5072551;28;20555;-73
2022/06/25 11:21:26;;;;;;;22.20;20.90;;;;;;;;;;5072658;28;20442;-73
2022/06/25 11:23:53;;;;;;;22.23;21.03;;;;;;;;;;5072548;28;20512;-73
2022/06/25 11:29:05;;;;;;;22.17;20.90;;;;;;;;;;5072406;28;20468;-73
2022/06/25 11:31:34;;;;;;;22.00;20.80;;;;;;;;;;5072172;28;20412;-73
2022/06/25 11:34:04;;;;;;;22.43;21.23;;;;;;;;;;5072488;28;20441;-73
2022/06/25 11:36:34;;;;;;;22.63;21.37;;;;;;;;;;5072311;28;20441;-73
2022/06/25 11:39:01;;;;;;;23.37;22.07;;;;;;;;;;5074893;28;20549;-73
2022/06/25 11:41:30;;;;;;;23.13;21.50;;;;;;;;;;5076193;28;20413;-73
2022/06/25 11:43:57;;;;;;;22.93;21.63;;;;;;;;;;5075916;28;20521;-72
2022/06/25 11:46:25;;;;;;;23.37;22.07;;;;;;;;;;5075987;28;20800;-73
2022/06/25 11:48:52;;;;;;;22.73;21.53;;;;;;;;;;5076097;28;20431;-73
2022/06/25 11:51:25;;;;;;;22.60;21.40;;;;;;;;;;5076134;28;20455;-73
2022/06/25 11:53:53;;;;;;;24.50;23.10;;;;;;;;;;5075738;28;20777;-73
2022/06/25 11:56:20;;;;;;;24.30;22.90;;;;;;;;;;5075700;28;20835;-73
2022/06/25 11:58:48;;;;;;;24.50;23.10;;;;;;;;;;5075670;28;20485;-73
2022/06/25 12:01:15;;;;;;;23.13;21.83;;;;;;;;;;5075668;28;20409;-73
2022/06/25 12:03:42;;;;;;;24.67;23.30;;;;;;;;;;5075420;28;20484;-73
2022/06/25 12:06:11;;;;;;;24.10;22.70;;;;;;;;;;5075521;28;20812;-73
2022/06/25 12:08:40;;;;;;;23.37;22.07;;;;;;;;;;5074631;28;20446;-73
2022/06/25 12:11:08;;;;;;;24.10;22.60;;;;;;;;;;5075338;28;21314;-73
2022/06/25 12:13:35;;;;;;;23.90;22.30;;;;;;;;;;5075724;28;20488;-74
2022/06/25 12:16:03;;;;;;;23.70;22.23;;;;;;;;;;5075400;28;20436;-73
2022/06/25 12:18:34;;;;;;;23.77;22.47;;;;;;;;;;5075274;28;20483;-73
2022/06/25 12:21:02;;;;;;;24.40;23.10;;;;;;;;;;5075548;28;20410;-74
2022/06/25 12:23:29;;;;;;;24.00;22.60;;;;;;;;;;5075197;28;20420;-74
2022/06/25 12:25:58;;;;;;;23.40;21.90;;;;;;;;;;5075531;28;20400;-75
2022/06/25 12:28:35;;;;;;;24.60;23.07;;;;;;;;;;5075474;28;20483;-75
2022/06/25 12:31:09;;;;;;;23.37;21.87;;;;;;;;;;5075421;28;20425;-75
2022/06/25 12:33:37;;;;;;;24.10;22.40;;;;;;;;;;5075018;28;20442;-76
2022/06/25 12:36:16;;;;;;;22.73;21.40;;;;;;;;;;5075346;28;20413;-76
2022/06/25 12:38:43;;;;;;;23.77;22.47;;;;;;;;;;5074802;28;20989;-75
2022/06/25 12:41:12;;;;;;;22.97;21.67;;;;;;;;;;5074628;28;20908;-75
2022/06/25 12:43:46;;;;;;;21.83;20.63;;;;;;;;;;5074750;28;20490;-75
2022/06/25 12:46:13;;;;;;;24.10;22.60;;;;;;;;;;5074808;28;20903;-75
2022/06/25 12:48:40;;;;;;;24.10;22.80;;;;;;;;;;5074798;28;20424;-74
2022/06/25 12:51:09;;;;;;;22.50;21.30;;;;;;;;;;5074134;28;20934;-74
2022/06/25 12:53:36;;;;;;;23.13;21.63;;;;;;;;;;5074738;28;20928;-74
2022/06/25 12:56:03;;;;;;;24.23;22.83;;;;;;;;;;5074960;28;20512;-76
2022/06/25 12:58:36;;;;;;;23.73;22.30;;;;;;;;;;5074902;28;20442;-75
2022/06/25 13:01:18;;;;;;;22.67;21.37;;;;;;;;;;5074924;28;20435;-75
2022/06/25 13:03:46;;;;;;;23.00;21.70;;;;;;;;;;5074578;28;20444;-75
2022/06/25 13:06:13;;;;;;;23.60;22.30;;;;;;;;;;5074623;28;20463;-75
2022/06/25 13:08:41;;;;;;;23.40;22.07;;;;;;;;;;5079816;28;20458;-74
2022/06/25 13:11:08;;;;;;;23.13;21.83;;;;;;;;;;5074609;28;20499;-75
2022/06/25 13:13:37;;;;;;;23.57;22.07;;;;;;;;;;5074567;28;20443;-75
2022/06/25 13:16:04;;;;;;;23.67;22.37;;;;;;;;;;5074115;28;21216;-75
2022/06/25 13:18:31;;;;;;;24.07;22.67;;;;;;;;;;5074031;28;20520;-75
2022/06/25 13:20:59;;;;;;;23.40;21.90;;;;;;;;;;5074062;28;20810;-75
2022/06/25 13:23:26;;;;;;;23.60;22.20;;;;;;;;;;5074265;28;20417;-84
2022/06/25 13:25:53;;;;;;;22.47;21.17;;;;;;;;;;5074006;28;20476;-76
2022/06/25 13:28:21;;;;;;;22.40;21.17;;;;;;;;;;5073969;28;20889;-75
2022/06/25 13:30:49;;;;;;;24.37;22.63;;;;;;;;;;5074163;28;20441;-75
2022/06/25 13:33:17;;;;;;;23.83;22.40;;;;;;;;;;5080490;28;20940;-75
2022/06/25 13:35:44;;;;;;;23.73;22.23;;;;;;;;;;5083739;28;20428;-75
2022/06/25 13:38:12;;;;;;;22.77;21.40;;;;;;;;;;5085112;28;20826;-75
2022/06/25 13:40:39;;;;;;;23.20;21.90;;;;;;;;;;5079583;28;20478;-75
2022/06/25 13:43:06;;;;;;;23.30;22.00;;;;;;;;;;5092259;28;20543;-75
2022/06/25 13:45:33;;;;;;;23.73;22.20;;;;;;;;;;5093770;28;20434;-75
2022/06/25 13:48:02;;;;;;;24.03;22.73;;;;;;;;;;5094139;28;20498;-74
2022/06/25 13:50:30;;;;;;;23.43;21.93;;;;;;;;;;5093816;28;20445;-75
2022/06/25 13:52:57;;;;;;;23.50;22.10;;;;;;;;;;5093809;28;20530;-75
2022/06/25 13:55:24;;;;;;;23.40;22.10;;;;;;;;;;5093670;28;20527;-75
2022/06/25 13:57:51;;;;;;;24.30;22.90;;;;;;;;;;5093986;28;20438;-75
2022/06/25 14:00:19;;;;;;;24.40;23.00;;;;;;;;;;5093873;28;20475;-74
2022/06/25 14:02:46;;;;;;;24.23;22.70;;;;;;;;;;5092967;28;20412;-74
2022/06/25 14:05:15;;;;;;;23.67;22.37;;;;;;;;;;5093854;28;20503;-75
2022/06/25 14:07:42;;;;;;;24.57;23.07;;;;;;;;;;5093734;28;20404;-74
2022/06/25 14:10:12;;;;;;;23.70;22.30;;;;;;;;;;5093301;28;20436;-75
2022/06/25 14:12:40;;;;;;;25.40;23.17;;;;;;;;;;5093628;28;20437;-75
2022/06/25 14:15:07;;;;;;;23.47;22.00;;;;;;;;;;5093764;28;20408;-75
2022/06/25 14:17:35;;;;;;;24.57;23.07;;;;;;;;;;5093635;28;20422;-74
2022/06/25 14:20:02;;;;;;;25.33;23.83;;;;;;;;;;5093492;28;20459;-75
2022/06/25 14:22:31;;;;;;;24.30;22.90;;;;;;;;;;5093210;28;20412;-74
2022/06/25 14:27:43;;;;;;;25.33;23.73;;;;;;;;;;5093208;28;20506;-74
2022/06/25 14:30:11;;;;;;;24.80;23.20;;;;;;;;;;5093342;28;20472;-75
2022/06/25 14:32:38;;;;;;;25.07;23.67;;;;;;;;;;5093052;28;20441;-75